Time;durP1;ratioP1;P1;durP2;ratioP2;P2;SDS_P1;SDS_P2;PMS_P1;PMS_P2;Temp;Humidity;BMP_temperature;BMP_pressure;BME280_temperature;BME280_humidity;BME280_pressure;Samples;Min_cycle;Max_cycle;Signal;HPM_P1;HPM_P2
2024/03/22 00:02:10;;;;;;;30.60;20.80;;;11.20;99.90;;;;;;6142041;23;20025;-76
2024/03/22 00:04:37;;;;;;;28.77;20.30;;;11.30;99.90;;;;;;6135750;23;20013;-76
2024/03/22 00:07:04;;;;;;;36.08;24.80;;;11.30;99.90;;;;;;6111510;23;20013;-76
2024/03/22 00:09:31;;;;;;;34.25;23.80;;;11.30;99.90;;;;;;6089554;23;20016;-77
2024/03/22 00:11:57;;;;;;;34.13;23.55;;;11.30;99.90;;;;;;6137564;23;20012;-76
2024/03/22 00:14:24;;;;;;;35.70;22.45;;;11.30;99.90;;;;;;6137949;23;20013;-76
2024/03/22 00:16:50;;;;;;;35.50;23.13;;;11.40;99.90;;;;;;6173984;23;20005;-76
2024/03/22 00:19:16;;;;;;;29.38;19.50;;;11.40;99.90;;;;;;6137166;23;20005;-76
2024/03/22 00:21:43;;;;;;;33.05;22.17;;;11.40;99.90;;;;;;6148073;23;20009;-76
2024/03/22 00:24:10;;;;;;;33.47;21.40;;;11.50;99.90;;;;;;6145699;23;20005;-76
2024/03/22 00:26:36;;;;;;;37.38;25.10;;;11.50;99.90;;;;;;6145468;23;20004;-76
2024/03/22 00:29:02;;;;;;;35.92;23.35;;;11.50;99.90;;;;;;6088097;23;20437;-76
2024/03/22 00:31:29;;;;;;;41.40;25.73;;;11.50;99.90;;;;;;6111824;23;20009;-76
2024/03/22 00:33:55;;;;;;;38.35;25.15;;;11.50;99.90;;;;;;6136592;23;20016;-76
2024/03/22 00:36:22;;;;;;;45.78;28.52;;;11.50;99.90;;;;;;6136779;23;20433;-76
2024/03/22 00:38:48;;;;;;;40.67;26.25;;;11.60;99.90;;;;;;6123241;23;20008;-76
2024/03/22 00:41:15;;;;;;;37.80;23.98;;;11.60;99.90;;;;;;6111785;23;20013;-76
2024/03/22 00:43:41;;;;;;;40.63;26.88;;;11.60;99.90;;;;;;6147529;23;20433;-76
2024/03/22 00:46:07;;;;;;;37.72;24.35;;;11.60;99.90;;;;;;6088118;23;20291;-76
2024/03/22 00:48:35;;;;;;;44.38;28.05;;;11.60;99.90;;;;;;6089218;23;20004;-77
2024/03/22 00:51:01;;;;;;;42.47;27.48;;;11.60;99.90;;;;;;6110708;23;20005;-76
2024/03/22 00:53:28;;;;;;;52.92;31.20;;;11.60;99.90;;;;;;6135475;23;20323;-76
2024/03/22 00:55:56;;;;;;;39.20;26.58;;;11.60;99.90;;;;;;6172209;23;20005;-76
2024/03/22 00:58:22;;;;;;;35.92;23.27;;;11.60;99.90;;;;;;6121542;23;20065;-77
2024/03/22 01:00:48;;;;;;;38.03;24.52;;;11.60;99.90;;;;;;6144784;23;20017;-76
2024/03/22 01:03:14;;;;;;;32.50;22.27;;;11.60;99.90;;;;;;6111175;23;20017;-76
2024/03/22 01:05:42;;;;;;;39.35;25.70;;;11.50;99.90;;;;;;6108834;23;20326;-76
2024/03/22 01:08:08;;;;;;;37.67;23.83;;;11.50;99.90;;;;;;6110829;23;20012;-76
2024/03/22 01:10:34;;;;;;;39.70;25.70;;;11.50;99.90;;;;;;6171426;23;20016;-76
2024/03/22 01:13:02;;;;;;;46.33;28.58;;;11.50;99.90;;;;;;6110653;23;20025;-76
2024/03/22 01:15:29;;;;;;;43.58;26.08;;;11.50;99.90;;;;;;6120450;23;20012;-76
2024/03/22 01:17:55;;;;;;;38.58;24.13;;;11.50;99.90;;;;;;6172498;23;20005;-76
2024/03/22 01:20:22;;;;;;;43.97;27.40;;;11.50;99.90;;;;;;6120749;23;20008;-76
2024/03/22 01:22:49;;;;;;;48.60;28.38;;;11.50;99.90;;;;;;6146514;23;20334;-76
2024/03/22 01:25:15;;;;;;;42.80;27.45;;;11.50;99.90;;;;;;6145434;23;20469;-76
2024/03/22 01:27:42;;;;;;;44.10;27.73;;;11.50;99.90;;;;;;6144961;23;20004;-76
2024/03/22 01:30:09;;;;;;;37.63;23.63;;;11.50;99.90;;;;;;6108827;23;20020;-76
2024/03/22 01:32:36;;;;;;;41.03;25.02;;;11.40;99.90;;;;;;6111329;23;20017;-76
2024/03/22 01:35:03;;;;;;;45.45;28.40;;;11.40;99.90;;;;;;6145781;23;20005;-76
2024/03/22 01:37:29;;;;;;;43.65;25.65;;;11.40;99.90;;;;;;6135921;23;20390;-76
2024/03/22 01:39:55;;;;;;;44.25;28.83;;;11.40;99.90;;;;;;6145527;23;20001;-76
2024/03/22 01:42:22;;;;;;;38.70;25.83;;;11.30;99.90;;;;;;6135959;23;20017;-76
2024/03/22 01:44:49;;;;;;;39.67;25.20;;;11.30;99.90;;;;;;6112739;23;20016;-76
2024/03/22 01:47:17;;;;;;;37.88;24.45;;;11.30;99.90;;;;;;6135324;23;20016;-76
2024/03/22 01:49:44;;;;;;;40.33;24.08;;;11.20;99.90;;;;;;6135328;23;20020;-76
2024/03/22 01:52:10;;;;;;;37.42;25.95;;;11.20;99.90;;;;;;6145842;23;20005;-77
2024/03/22 01:54:36;;;;;;;46.25;29.75;;;11.20;99.90;;;;;;6086711;23;20005;-76
2024/03/22 01:57:03;;;;;;;41.17;26.15;;;11.20;99.90;;;;;;6110477;23;20523;-76
2024/03/22 01:59:30;;;;;;;37.45;23.70;;;11.20;99.90;;;;;;6085994;23;20306;-76
2024/03/22 02:01:57;;;;;;;44.88;26.73;;;11.10;99.90;;;;;;6118344;23;20039;-77
2024/03/22 02:04:23;;;;;;;38.35;23.95;;;11.10;99.90;;;;;;6147512;23;20012;-77
2024/03/22 02:06:49;;;;;;;40.25;24.95;;;11.10;99.90;;;;;;6174720;23;20016;-77
2024/03/22 02:09:16;;;;;;;51.55;30.38;;;11.10;99.90;;;;;;6137529;23;20056;-77
2024/03/22 02:11:45;;;;;;;37.72;24.17;;;11.00;99.90;;;;;;6174485;23;20020;-77
2024/03/22 02:14:11;;;;;;;46.20;28.55;;;11.10;99.90;;;;;;6113759;23;20036;-77
2024/03/22 02:16:40;;;;;;;47.35;29.85;;;11.00;99.90;;;;;;6112984;23;20017;-77
2024/03/22 02:19:07;;;;;;;41.83;27.67;;;11.00;99.90;;;;;;6089712;23;20016;-76
2024/03/22 02:21:34;;;;;;;40.40;25.90;;;11.10;99.90;;;;;;6123676;23;20016;-77
2024/03/22 02:24:00;;;;;;;45.58;27.80;;;11.10;99.90;;;;;;6089517;23;20012;-77
2024/03/22 02:26:26;;;;;;;47.78;30.05;;;11.10;99.90;;;;;;6091413;23;20005;-77
2024/03/22 02:28:53;;;;;;;41.95;25.17;;;11.20;99.90;;;;;;6123079;23;20016;-77
2024/03/22 02:31:20;;;;;;;43.67;27.90;;;11.20;99.90;;;;;;6138712;23;20024;-76
2024/03/22 02:33:46;;;;;;;43.13;26.58;;;11.30;99.90;;;;;;6149755;23;20009;-77
2024/03/22 02:36:12;;;;;;;46.47;29.33;;;11.20;99.90;;;;;;6114894;23;20013;-78
2024/03/22 02:38:39;;;;;;;48.05;29.27;;;11.30;99.90;;;;;;6115276;23;20009;-77
2024/03/22 02:41:05;;;;;;;67.35;39.88;;;11.30;99.90;;;;;;6175542;23;20005;-77
2024/03/22 02:43:31;;;;;;;52.03;31.25;;;11.30;99.90;;;;;;6124674;23;20359;-77
2024/03/22 02:45:58;;;;;;;43.38;26.23;;;11.20;99.90;;;;;;6125474;23;20023;-77
2024/03/22 02:48:25;;;;;;;42.47;27.33;;;11.20;99.90;;;;;;6114791;23;20016;-77
2024/03/22 02:50:55;;;;;;;43.00;26.95;;;11.20;99.90;;;;;;6114872;23;20009;-77
2024/03/22 02:53:22;;;;;;;50.20;31.42;;;11.20;99.90;;;;;;6112654;23;20009;-77
2024/03/22 02:55:49;;;;;;;54.58;34.03;;;11.20;99.90;;;;;;6114150;23;20005;-76
2024/03/22 02:58:16;;;;;;;54.97;34.60;;;11.20;99.90;;;;;;6115013;23;20024;-77
2024/03/22 03:00:43;;;;;;;46.45;30.08;;;11.20;99.90;;;;;;6090060;23;20009;-77
2024/03/22 03:03:09;;;;;;;48.55;30.83;;;11.20;99.90;;;;;;6090187;23;20017;-77
2024/03/22 03:05:36;;;;;;;45.45;30.20;;;11.30;99.90;;;;;;6139353;23;20487;-77
2024/03/22 03:08:03;;;;;;;51.53;31.80;;;11.30;99.90;;;;;;6140606;23;20005;-77
2024/03/22 03:10:29;;;;;;;47.35;30.88;;;11.20;99.90;;;;;;6113990;23;20024;-77
2024/03/22 03:12:56;;;;;;;45.28;29.65;;;11.20;99.90;;;;;;6149326;23;20354;-77
2024/03/22 03:15:23;;;;;;;43.22;28.20;;;11.20;99.90;;;;;;6148702;23;20484;-77
2024/03/22 03:17:51;;;;;;;43.67;27.98;;;11.20;99.90;;;;;;6138830;23;20013;-77
2024/03/22 03:20:18;;;;;;;45.92;29.05;;;11.20;99.90;;;;;;6113530;23;20005;-77
2024/03/22 03:22:44;;;;;;;48.10;30.13;;;11.20;99.90;;;;;;6175059;23;20485;-77
2024/03/22 03:25:11;;;;;;;43.85;28.02;;;11.20;99.90;;;;;;6148402;23;20013;-77
2024/03/22 03:27:37;;;;;;;45.90;29.98;;;11.20;99.90;;;;;;6148942;23;20020;-77
2024/03/22 03:30:04;;;;;;;41.65;26.38;;;11.20;99.90;;;;;;6088617;23;20009;-77
2024/03/22 03:32:32;;;;;;;38.40;26.67;;;11.20;99.90;;;;;;6114526;23;20024;-77
2024/03/22 03:34:58;;;;;;;43.70;28.67;;;11.20;99.90;;;;;;6114375;23;20016;-77
2024/03/22 03:37:25;;;;;;;39.75;26.50;;;11.20;99.90;;;;;;6124276;23;20020;-77
2024/03/22 03:39:52;;;;;;;38.22;26.48;;;11.20;99.90;;;;;;6138427;23;20561;-76
2024/03/22 03:42:18;;;;;;;37.55;24.10;;;11.30;99.90;;;;;;6149544;23;20057;-77
2024/03/22 03:44:45;;;;;;;40.45;26.30;;;11.30;99.90;;;;;;6148773;23;20009;-77
2024/03/22 03:47:11;;;;;;;44.85;29.98;;;11.30;99.90;;;;;;6174777;23;20012;-77
2024/03/22 03:49:37;;;;;;;48.70;30.00;;;11.30;99.90;;;;;;6138119;23;20016;-77
2024/03/22 03:52:04;;;;;;;43.15;29.30;;;11.30;99.90;;;;;;6113151;23;20020;-77
2024/03/22 03:54:30;;;;;;;55.47;35.17;;;11.30;99.90;;;;;;6088493;23;20012;-77
2024/03/22 03:56:56;;;;;;;52.72;33.53;;;11.30;99.90;;;;;;6089062;23;20005;-76
2024/03/22 03:59:23;;;;;;;45.92;30.95;;;11.30;99.90;;;;;;6147861;23;20005;-77
2024/03/22 04:01:50;;;;;;;47.13;30.08;;;11.30;99.90;;;;;;6087688;23;20373;-78
2024/03/22 04:04:16;;;;;;;53.95;34.15;;;11.30;99.90;;;;;;6113247;23;20024;-77
2024/03/22 04:06:44;;;;;;;44.42;28.45;;;11.30;99.90;;;;;;6113776;23;20016;-78
2024/03/22 04:09:11;;;;;;;50.83;30.77;;;11.40;99.90;;;;;;6147847;23;20005;-77
2024/03/22 04:11:37;;;;;;;51.80;31.15;;;11.30;99.90;;;;;;6113875;23;20017;-77
2024/03/22 04:14:05;;;;;;;53.90;33.35;;;11.30;99.90;;;;;;6113300;23;20032;-77
2024/03/22 04:16:31;;;;;;;49.25;30.95;;;11.40;99.90;;;;;;6173884;23;20004;-77
2024/03/22 04:18:58;;;;;;;44.75;30.33;;;11.40;99.90;;;;;;6148989;23;20009;-76
2024/03/22 04:21:25;;;;;;;56.85;36.05;;;11.40;99.90;;;;;;6113818;23;20017;-76
2024/03/22 04:23:51;;;;;;;43.95;28.42;;;11.40;99.90;;;;;;6089892;23;20050;-76
2024/03/22 04:26:17;;;;;;;47.85;32.63;;;11.40;99.90;;;;;;6148112;23;20009;-76
2024/03/22 04:28:44;;;;;;;54.65;34.85;;;11.40;99.90;;;;;;6088800;23;20016;-77
2024/03/22 04:31:10;;;;;;;50.35;33.60;;;11.40;99.90;;;;;;6136597;23;20065;-77
2024/03/22 04:33:37;;;;;;;45.28;29.27;;;11.40;99.90;;;;;;6113443;23;20350;-77
2024/03/22 04:36:04;;;;;;;55.15;35.65;;;11.40;99.90;;;;;;6147823;23;20102;-77
2024/03/22 04:38:31;;;;;;;49.80;32.75;;;11.40;99.90;;;;;;6174951;23;20017;-77
2024/03/22 04:40:58;;;;;;;51.80;32.97;;;11.40;99.90;;;;;;6112584;23;20012;-76
2024/03/22 04:43:24;;;;;;;44.00;29.75;;;11.40;99.90;;;;;;6138394;23;20016;-76
2024/03/22 04:45:51;;;;;;;52.38;32.58;;;11.40;99.90;;;;;;6112588;23;20017;-76
2024/03/22 04:48:19;;;;;;;46.10;31.63;;;11.40;99.90;;;;;;6148552;23;20008;-76
2024/03/22 04:50:45;;;;;;;45.05;29.65;;;11.40;99.90;;;;;;6122244;23;20001;-76
2024/03/22 04:53:12;;;;;;;47.75;32.20;;;11.40;99.90;;;;;;6147995;23;20016;-77
2024/03/22 04:55:44;;;;;;;46.08;31.55;;;11.40;99.90;;;;;;6173764;23;20012;-77
2024/03/22 04:58:21;;;;;;;46.05;30.05;;;11.40;99.90;;;;;;6114610;23;20370;-77
2024/03/22 05:00:49;;;;;;;42.25;28.52;;;11.40;99.90;;;;;;6173126;23;20485;-76
2024/03/22 05:03:16;;;;;;;40.78;26.90;;;11.40;99.90;;;;;;6137698;23;20035;-77
2024/03/22 05:05:43;;;;;;;46.05;30.13;;;11.40;99.90;;;;;;6123103;23;20009;-78
2024/03/22 05:08:10;;;;;;;56.70;35.63;;;11.40;99.90;;;;;;6114491;23;20017;-79
2024/03/22 05:10:36;;;;;;;45.22;30.55;;;11.30;99.90;;;;;;6136767;23;20013;-77
2024/03/22 05:13:03;;;;;;;47.88;30.58;;;11.30;99.90;;;;;;6137588;23;20001;-77
2024/03/22 05:15:29;;;;;;;44.88;29.42;;;11.30;99.90;;;;;;6122846;23;20781;-77
2024/03/22 05:17:57;;;;;;;43.08;28.40;;;11.30;99.90;;;;;;6149188;23;20016;-77
2024/03/22 05:20:24;;;;;;;38.75;27.00;;;11.30;99.90;;;;;;6112823;23;20450;-78
2024/03/22 05:22:50;;;;;;;39.17;26.70;;;11.20;99.90;;;;;;6113485;23;20474;-77
2024/03/22 05:25:17;;;;;;;44.78;29.80;;;11.20;99.90;;;;;;6089449;23;20024;-78
2024/03/22 05:27:45;;;;;;;47.03;31.33;;;11.20;99.90;;;;;;6089460;23;20024;-78
2024/03/22 05:30:15;;;;;;;43.70;28.33;;;11.20;99.90;;;;;;6140268;23;20004;-77
2024/03/22 05:32:42;;;;;;;42.50;27.17;;;11.10;99.90;;;;;;6114877;23;20020;-76
2024/03/22 05:35:08;;;;;;;44.38;27.58;;;11.10;99.90;;;;;;6147737;23;20005;-77
2024/03/22 05:37:35;;;;;;;42.08;29.42;;;11.10;99.90;;;;;;6137105;23;20001;-78
2024/03/22 05:40:04;;;;;;;40.78;27.00;;;11.10;99.90;;;;;;6122969;23;20012;-78
2024/03/22 05:42:31;;;;;;;41.08;27.65;;;11.00;99.90;;;;;;6088476;23;20013;-78
2024/03/22 05:44:57;;;;;;;39.67;24.88;;;11.00;99.90;;;;;;6147177;23;20020;-77
2024/03/22 05:47:23;;;;;;;42.60;27.83;;;11.00;99.90;;;;;;6123023;23;20358;-78
2024/03/22 05:49:51;;;;;;;41.28;24.75;;;11.00;99.90;;;;;;6113082;23;20024;-78
2024/03/22 05:52:18;;;;;;;41.10;27.45;;;11.00;99.90;;;;;;6147110;23;20009;-77
2024/03/22 05:54:44;;;;;;;41.60;27.30;;;11.00;99.90;;;;;;6137514;23;20394;-78
2024/03/22 05:57:11;;;;;;;41.15;27.48;;;11.00;99.90;;;;;;6147690;23;20008;-77
2024/03/22 05:59:38;;;;;;;36.35;24.83;;;11.00;99.90;;;;;;6115751;23;20009;-76
2024/03/22 06:02:05;;;;;;;45.40;27.55;;;11.00;99.90;;;;;;6141304;23;20028;-78
2024/03/22 06:04:32;;;;;;;41.50;27.88;;;11.00;99.90;;;;;;6128514;23;20417;-77
2024/03/22 06:06:59;;;;;;;38.33;25.48;;;11.00;99.90;;;;;;6092459;23;20017;-77
2024/03/22 06:09:45;;;;;;;39.78;26.35;;;11.00;99.90;;;;;;6140157;23;20012;-78
2024/03/22 06:12:13;;;;;;;36.17;24.08;;;11.10;99.90;;;;;;6093127;23;20032;-79
2024/03/22 06:14:40;;;;;;;42.80;27.05;;;11.10;99.90;;;;;;6092493;23;20024;-77
2024/03/22 06:17:07;;;;;;;39.00;25.38;;;11.10;99.90;;;;;;6093370;23;20551;-78
2024/03/22 06:19:33;;;;;;;38.47;26.27;;;11.10;99.90;;;;;;6176982;23;20012;-78
2024/03/22 06:22:00;;;;;;;36.85;23.75;;;11.10;99.90;;;;;;6092449;23;20484;-78
2024/03/22 06:24:26;;;;;;;37.00;25.50;;;11.10;99.90;;;;;;6116420;23;20013;-78
2024/03/22 06:26:53;;;;;;;38.38;24.67;;;11.10;99.90;;;;;;6117181;23;20005;-78
2024/03/22 06:29:19;;;;;;;38.47;25.67;;;11.10;99.90;;;;;;6172676;23;20013;-78
2024/03/22 06:31:46;;;;;;;35.95;24.17;;;11.10;99.90;;;;;;6150985;23;20005;-77
2024/03/22 06:34:13;;;;;;;36.15;23.73;;;11.10;99.90;;;;;;6126042;23;20895;-77
2024/03/22 06:36:39;;;;;;;38.95;23.55;;;11.10;99.90;;;;;;6115914;23;20928;-79
2024/03/22 06:39:07;;;;;;;36.45;23.08;;;11.10;99.90;;;;;;6126687;23;20009;-78
2024/03/22 06:41:37;;;;;;;33.22;24.15;;;11.10;99.90;;;;;;6141003;23;20016;-77
2024/03/22 06:44:04;;;;;;;36.80;24.17;;;11.20;99.90;;;;;;6115664;23;20749;-78
2024/03/22 06:46:30;;;;;;;40.10;25.00;;;11.20;99.90;;;;;;6125897;23;20040;-77
2024/03/22 06:48:58;;;;;;;41.92;26.23;;;11.20;99.90;;;;;;6151265;23;20988;-78
2024/03/22 06:51:24;;;;;;;33.95;22.30;;;11.20;99.90;;;;;;6151299;23;20028;-78
2024/03/22 06:53:51;;;;;;;31.65;22.75;;;11.20;99.90;;;;;;6115871;23;20432;-78
2024/03/22 06:56:17;;;;;;;38.10;22.52;;;11.20;99.90;;;;;;6091075;23;20469;-78
2024/03/22 06:58:44;;;;;;;35.20;23.65;;;11.30;99.90;;;;;;6151161;23;20011;-78
2024/03/22 07:01:11;;;;;;;34.72;23.08;;;11.30;99.90;;;;;;6114657;23;20019;-77
2024/03/22 07:03:37;;;;;;;29.60;20.10;;;11.40;99.90;;;;;;6116626;23;20019;-78
2024/03/22 07:06:05;;;;;;;30.45;20.92;;;11.40;99.90;;;;;;6125237;23;20009;-77
2024/03/22 07:08:32;;;;;;;32.75;22.30;;;11.50;99.90;;;;;;6127277;23;20336;-78
2024/03/22 07:10:59;;;;;;;38.42;23.02;;;11.50;99.90;;;;;;6123658;23;20333;-78
2024/03/22 07:13:26;;;;;;;32.38;22.50;;;11.50;99.90;;;;;;6091596;23;20009;-78
2024/03/22 07:15:53;;;;;;;32.00;22.00;;;11.50;99.90;;;;;;6114442;23;20017;-77
2024/03/22 07:18:19;;;;;;;33.78;21.48;;;11.50;99.90;;;;;;6115412;23;20723;-78
2024/03/22 07:20:45;;;;;;;29.67;19.45;;;11.60;99.90;;;;;;6123414;23;20016;-77
2024/03/22 07:23:12;;;;;;;28.75;21.13;;;11.60;99.90;;;;;;6149200;23;20009;-77
2024/03/22 07:25:38;;;;;;;31.48;20.10;;;11.70;99.90;;;;;;6124454;23;20910;-77
2024/03/22 07:28:04;;;;;;;30.92;20.65;;;11.80;99.90;;;;;;6116530;23;20009;-78
2024/03/22 07:30:31;;;;;;;29.55;21.33;;;11.90;99.90;;;;;;6088565;23;20009;-78
2024/03/22 07:32:57;;;;;;;29.83;20.83;;;11.90;99.90;;;;;;6090782;23;20509;-78
2024/03/22 07:35:25;;;;;;;33.17;22.63;;;12.00;99.90;;;;;;6173995;23;20656;-77
2024/03/22 07:37:52;;;;;;;35.17;23.90;;;12.10;99.90;;;;;;6114150;23;20449;-78
2024/03/22 07:40:20;;;;;;;28.80;20.55;;;12.10;99.90;;;;;;6173954;23;20489;-78
2024/03/22 07:42:46;;;;;;;30.67;20.77;;;12.20;99.90;;;;;;6114335;23;20020;-77
2024/03/22 07:45:12;;;;;;;27.67;20.20;;;12.20;99.90;;;;;;6149778;23;20013;-77
2024/03/22 07:47:42;;;;;;;32.03;21.88;;;12.30;99.90;;;;;;6090842;23;20013;-78
2024/03/22 07:50:08;;;;;;;28.98;21.25;;;12.30;99.90;;;;;;6113418;23;20001;-78
2024/03/22 07:52:35;;;;;;;27.60;20.15;;;12.20;99.90;;;;;;6090397;23;20013;-77
2024/03/22 07:55:02;;;;;;;28.10;20.13;;;12.20;99.90;;;;;;6114091;23;20508;-78
2024/03/22 07:57:32;;;;;;;25.33;17.92;;;12.20;99.90;;;;;;6115482;23;20358;-77
2024/03/22 07:59:59;;;;;;;29.92;21.52;;;12.20;99.90;;;;;;6174570;23;20012;-77
2024/03/22 08:02:25;;;;;;;30.35;20.83;;;12.20;99.90;;;;;;6091996;23;20036;-78
2024/03/22 08:04:51;;;;;;;29.08;19.58;;;12.10;99.90;;;;;;6126057;23;20064;-78
2024/03/22 08:07:18;;;;;;;27.77;20.27;;;12.10;99.90;;;;;;6115524;23;20013;-77
2024/03/22 08:09:44;;;;;;;25.02;18.20;;;12.10;99.90;;;;;;6091255;23;20013;-78
2024/03/22 08:12:10;;;;;;;25.70;19.17;;;12.10;99.90;;;;;;6115382;23;20013;-77
2024/03/22 08:14:37;;;;;;;21.83;16.33;;;12.10;99.90;;;;;;6114561;23;20016;-77
2024/03/22 08:17:03;;;;;;;29.48;20.08;;;12.20;99.90;;;;;;6175068;23;20194;-75
2024/03/22 08:19:30;;;;;;;27.27;19.50;;;12.20;99.90;;;;;;6124438;23;20012;-76
2024/03/22 08:21:57;;;;;;;22.40;17.48;;;12.20;99.90;;;;;;6137972;23;20009;-75
2024/03/22 08:24:24;;;;;;;31.27;23.00;;;12.20;99.90;;;;;;6124002;23;20358;-76
2024/03/22 08:26:50;;;;;;;25.88;19.88;;;12.20;99.90;;;;;;6148733;23;20024;-76
2024/03/22 08:29:17;;;;;;;26.58;19.77;;;12.20;99.90;;;;;;6144485;23;20008;-76
2024/03/22 08:31:43;;;;;;;29.45;21.35;;;12.20;99.90;;;;;;6113612;23;20017;-76
2024/03/22 08:34:10;;;;;;;27.75;19.83;;;12.20;99.90;;;;;;6089537;23;20009;-76
2024/03/22 08:36:36;;;;;;;26.73;19.92;;;12.20;99.90;;;;;;6123651;23;20012;-77
2024/03/22 08:39:02;;;;;;;25.08;18.88;;;12.20;99.90;;;;;;6174681;23;20012;-76
2024/03/22 08:41:29;;;;;;;29.92;22.38;;;12.20;99.90;;;;;;6148740;23;20001;-77
2024/03/22 08:43:57;;;;;;;28.20;20.35;;;12.30;99.90;;;;;;6090332;23;20009;-77
2024/03/22 08:46:26;;;;;;;31.92;22.55;;;12.30;99.90;;;;;;6089538;23;20891;-76
2024/03/22 08:48:53;;;;;;;33.63;23.30;;;12.30;99.90;;;;;;6149435;23;20016;-77
2024/03/22 08:51:21;;;;;;;38.50;25.88;;;12.30;99.90;;;;;;6172915;23;20027;-76
2024/03/22 08:53:47;;;;;;;33.85;25.67;;;12.30;99.90;;;;;;6148090;23;20009;-76
2024/03/22 08:56:14;;;;;;;34.05;24.45;;;12.30;99.90;;;;;;6112991;23;20001;-82
2024/03/22 08:58:40;;;;;;;37.90;26.38;;;12.30;99.90;;;;;;6089570;23;20020;-82
2024/03/22 09:01:09;;;;;;;35.67;26.80;;;12.20;99.90;;;;;;6114626;23;20009;-77
2024/03/22 09:03:37;;;;;;;39.80;29.60;;;12.20;99.90;;;;;;6114203;23;20009;-78
2024/03/22 09:06:04;;;;;;;37.40;27.75;;;12.20;99.90;;;;;;6090379;23;20017;-80
2024/03/22 09:08:31;;;;;;;38.67;28.10;;;12.10;99.90;;;;;;6115283;23;20005;-80
2024/03/22 09:10:57;;;;;;;42.38;28.45;;;12.00;99.90;;;;;;6109153;23;20013;-78
2024/03/22 09:13:25;;;;;;;39.33;28.48;;;12.00;99.90;;;;;;6122166;23;20016;-78
2024/03/22 09:15:58;;;;;;;38.03;27.77;;;11.90;99.90;;;;;;6122375;23;20216;-79
2024/03/22 09:18:25;;;;;;;38.53;29.33;;;11.90;99.90;;;;;;6174637;23;20001;-79
2024/03/22 09:20:53;;;;;;;38.80;28.10;;;11.90;99.90;;;;;;6145847;23;20001;-79
2024/03/22 09:23:20;;;;;;;36.55;27.48;;;11.90;99.90;;;;;;6113465;23;20019;-78
2024/03/22 09:25:47;;;;;;;42.83;29.77;;;11.90;99.90;;;;;;6145419;23;20013;-80
2024/03/22 09:28:14;;;;;;;42.85;30.10;;;11.90;99.90;;;;;;6123061;23;20530;-79
2024/03/22 09:30:40;;;;;;;48.72;33.05;;;11.80;99.90;;;;;;6111718;23;20020;-81
2024/03/22 09:33:07;;;;;;;42.80;28.92;;;11.80;99.90;;;;;;6173914;23;20001;-80
2024/03/22 09:35:36;;;;;;;44.75;32.28;;;11.80;99.90;;;;;;6135211;23;20055;-80
2024/03/22 09:38:03;;;;;;;41.55;30.23;;;11.80;99.90;;;;;;6087996;23;20032;-78
2024/03/22 09:40:29;;;;;;;38.20;26.77;;;11.80;99.90;;;;;;6112240;23;20017;-80
2024/03/22 09:43:05;;;;;;;37.90;25.95;;;11.80;99.90;;;;;;6087448;23;20013;-77
2024/03/22 09:45:31;;;;;;;41.28;29.13;;;11.80;99.90;;;;;;6085498;23;20009;-80
2024/03/22 09:47:58;;;;;;;43.35;30.25;;;11.80;99.90;;;;;;6087909;23;20009;-79
2024/03/22 09:50:26;;;;;;;41.35;27.50;;;11.80;99.90;;;;;;6086891;23;20024;-79
2024/03/22 09:52:53;;;;;;;44.60;31.02;;;11.90;99.90;;;;;;6112952;23;20013;-78
2024/03/22 09:55:23;;;;;;;37.92;28.08;;;11.90;99.90;;;;;;6111119;23;20005;-77
2024/03/22 09:57:50;;;;;;;38.05;27.05;;;11.90;99.90;;;;;;6090560;23;20016;-77
2024/03/22 10:00:25;;;;;;;42.72;30.77;;;11.90;99.90;;;;;;6148141;23;20004;-77
2024/03/22 10:02:53;;;;;;;43.88;31.80;;;11.90;99.90;;;;;;6090147;23;20508;-76
2024/03/22 10:05:19;;;;;;;41.55;28.13;;;11.90;99.90;;;;;;6146534;23;20016;-77
2024/03/22 10:07:46;;;;;;;42.55;31.02;;;11.90;99.90;;;;;;6112367;23;20674;-76
2024/03/22 10:10:14;;;;;;;50.30;32.70;;;11.90;99.90;;;;;;6086766;23;20023;-76
2024/03/22 10:12:41;;;;;;;40.90;29.75;;;11.90;99.90;;;;;;6088137;23;20401;-77
2024/03/22 10:15:12;;;;;;;39.20;29.33;;;11.90;99.90;;;;;;6121987;23;20305;-75
2024/03/22 10:17:39;;;;;;;44.35;33.63;;;11.90;99.90;;;;;;6111670;23;20454;-76
2024/03/22 10:20:13;;;;;;;44.05;32.20;;;11.90;99.90;;;;;;6146458;23;20032;-76
2024/03/22 10:22:47;;;;;;;38.45;29.80;;;11.90;99.90;;;;;;6146205;23;20013;-76
2024/03/22 10:25:14;;;;;;;45.65;31.48;;;11.90;99.90;;;;;;6135553;23;20446;-77
2024/03/22 10:27:41;;;;;;;36.60;27.33;;;11.90;99.90;;;;;;6111157;23;20021;-76
2024/03/22 10:30:09;;;;;;;37.13;27.77;;;11.90;99.90;;;;;;6139371;23;20009;-76
2024/03/22 10:32:37;;;;;;;35.78;27.30;;;11.90;99.90;;;;;;6089359;23;20009;-77
2024/03/22 10:35:05;;;;;;;36.78;26.98;;;11.90;99.90;;;;;;6173563;23;20016;-76
2024/03/22 10:37:33;;;;;;;35.97;25.45;;;11.80;99.90;;;;;;6112569;23;20421;-76
2024/03/22 10:40:11;;;;;;;31.52;23.90;;;11.80;99.90;;;;;;6114352;23;20016;-76
2024/03/22 10:42:39;;;;;;;31.88;23.30;;;11.90;99.90;;;;;;6123842;23;20024;-75
2024/03/22 10:45:07;;;;;;;33.05;25.08;;;11.90;99.90;;;;;;6148334;23;20430;-76
2024/03/22 10:47:36;;;;;;;29.38;22.48;;;11.90;99.90;;;;;;6149269;23;20001;-75
2024/03/22 10:50:13;;;;;;;33.13;25.42;;;12.00;99.90;;;;;;6148561;23;20015;-74
2024/03/22 10:53:01;;;;;;;34.90;25.13;;;12.00;99.90;;;;;;6149789;23;20681;-74
2024/03/22 10:55:34;;;;;;;33.22;24.55;;;11.90;99.90;;;;;;6123647;23;20012;-76
2024/03/22 10:58:01;;;;;;;23.88;20.58;;;11.90;99.90;;;;;;6149076;23;20009;-77
2024/03/22 11:00:35;;;;;;;24.80;20.85;;;11.90;99.90;;;;;;6113603;23;20016;-75
2024/03/22 11:03:02;;;;;;;30.10;21.65;;;11.90;99.90;;;;;;6114782;23;20354;-75
2024/03/22 11:05:30;;;;;;;25.63;19.58;;;11.90;99.90;;;;;;6138944;23;20013;-75
2024/03/22 11:08:01;;;;;;;26.15;19.55;;;11.90;99.90;;;;;;6114611;23;20832;-75
2024/03/22 11:10:33;;;;;;;26.33;20.45;;;11.90;99.90;;;;;;6090892;23;20704;-75
2024/03/22 11:13:02;;;;;;;23.75;19.45;;;11.90;99.90;;;;;;6089552;23;20009;-75
2024/03/22 11:15:30;;;;;;;26.00;20.33;;;11.90;99.90;;;;;;6110773;23;20009;-78
2024/03/22 11:17:57;;;;;;;27.77;21.20;;;11.90;99.90;;;;;;6112559;23;20472;-77
2024/03/22 11:20:25;;;;;;;28.27;20.75;;;11.80;99.90;;;;;;6113395;23;20005;-76
2024/03/22 11:22:54;;;;;;;24.35;18.38;;;11.80;99.90;;;;;;6089885;23;20552;-76
2024/03/22 11:25:21;;;;;;;20.45;17.33;;;11.80;99.90;;;;;;6084126;23;20036;-75
2024/03/22 11:27:47;;;;;;;20.50;16.08;;;11.80;99.90;;;;;;6088733;23;20028;-76
2024/03/22 11:30:15;;;;;;;19.85;15.07;;;11.80;99.90;;;;;;6113759;23;20618;-77
2024/03/22 11:32:46;;;;;;;19.83;15.95;;;11.70;99.90;;;;;;6089899;23;20020;-77
2024/03/22 11:35:13;;;;;;;18.67;14.73;;;11.70;99.90;;;;;;6090191;23;20001;-78
2024/03/22 11:37:40;;;;;;;17.50;13.13;;;11.70;99.90;;;;;;6112258;23;20209;-78
2024/03/22 11:40:11;;;;;;;14.20;11.32;;;11.70;99.90;;;;;;6148595;23;20004;-77
2024/03/22 11:42:43;;;;;;;15.05;12.65;;;11.70;99.90;;;;;;6124238;23;20012;-77
2024/03/22 11:45:11;;;;;;;14.23;11.02;;;11.70;99.90;;;;;;6112488;23;20013;-78
2024/03/22 11:47:37;;;;;;;12.13;9.85;;;11.70;99.90;;;;;;6112820;23;20430;-77
2024/03/22 11:50:04;;;;;;;16.25;12.82;;;11.70;99.90;;;;;;6149021;23;20005;-77
2024/03/22 11:52:35;;;;;;;13.98;11.55;;;11.80;99.90;;;;;;6116159;23;20028;-77
2024/03/22 11:55:02;;;;;;;10.45;9.35;;;11.80;99.90;;;;;;6112150;23;20009;-77
2024/03/22 11:57:29;;;;;;;9.95;8.93;;;11.80;99.90;;;;;;6091651;23;20464;-76
2024/03/22 12:00:00;;;;;;;9.90;8.65;;;11.80;99.90;;;;;;6149956;23;20611;-78
2024/03/22 12:02:27;;;;;;;8.73;7.38;;;11.80;99.90;;;;;;6114401;23;20269;-79
2024/03/22 12:04:53;;;;;;;10.70;7.82;;;11.80;99.90;;;;;;6150157;23;20016;-77
2024/03/22 12:07:19;;;;;;;9.00;6.90;;;11.80;99.90;;;;;;6148761;23;20438;-76
2024/03/22 12:09:46;;;;;;;9.38;6.55;;;11.80;99.90;;;;;;6089544;23;20534;-77
2024/03/22 12:12:13;;;;;;;8.90;6.43;;;11.80;99.90;;;;;;6175231;23;20016;-78
2024/03/22 12:14:40;;;;;;;6.97;6.18;;;11.80;99.90;;;;;;6113576;23;20607;-77
2024/03/22 12:17:07;;;;;;;7.13;6.40;;;11.80;99.90;;;;;;6149032;23;20005;-77
2024/03/22 12:19:34;;;;;;;5.68;5.18;;;11.80;99.90;;;;;;6123830;23;20557;-76
2024/03/22 12:22:01;;;;;;;6.90;6.07;;;11.80;99.90;;;;;;6124267;23;20438;-78
2024/03/22 12:24:28;;;;;;;6.43;5.70;;;11.90;99.90;;;;;;6124339;23;20540;-77
2024/03/22 12:26:54;;;;;;;7.07;6.32;;;11.90;99.90;;;;;;6113523;23;20346;-78
2024/03/22 12:29:20;;;;;;;6.20;5.45;;;11.90;99.90;;;;;;6112920;23;20020;-79